sensor_id;sensor_type;location;lat;lon;timestamp;temperature;humidity
9215;DHT22;4642;51.364;6.788;2023-03-01T00:01:11;-1.80;99.90
9215;DHT22;4642;51.364;6.788;2023-03-01T00:03:37;-1.80;99.90
9215;DHT22;4642;51.364;6.788;2023-03-01T00:06:04;-1.90;99.90
9215;DHT22;4642;51.364;6.788;2023-03-01T00:08:30;-1.90;99.90
9215;DHT22;4642;51.364;6.788;2023-03-01T00:11:14;-2.00;99.90
9215;DHT22;4642;51.364;6.788;2023-03-01T00:13:40;-2.00;99.90
9215;DHT22;4642;51.364;6.788;2023-03-01T00:16:09;-2.00;99.90
9215;DHT22;4642;51.364;6.788;2023-03-01T00:18:35;-2.00;99.90
9215;DHT22;4642;51.364;6.788;2023-03-01T00:21:01;-2.00;99.90
9215;DHT22;4642;51.364;6.788;2023-03-01T00:23:27;-2.00;99.90
9215;DHT22;4642;51.364;6.788;2023-03-01T00:25:53;-2.10;99.90
9215;DHT22;4642;51.364;6.788;2023-03-01T00:28:19;-2.10;99.90
9215;DHT22;4642;51.364;6.788;2023-03-01T00:30:45;-2.20;99.90
9215;DHT22;4642;51.364;6.788;2023-03-01T00:33:10;-2.20;99.90
9215;DHT22;4642;51.364;6.788;2023-03-01T00:35:36;-2.20;99.90
9215;DHT22;4642;51.364;6.788;2023-03-01T00:38:02;-2.20;99.90
9215;DHT22;4642;51.364;6.788;2023-03-01T00:40:32;-2.10;99.90
9215;DHT22;4642;51.364;6.788;2023-03-01T00:42:57;-2.20;99.90
9215;DHT22;4642;51.364;6.788;2023-03-01T00:45:23;-2.20;99.90
9215;DHT22;4642;51.364;6.788;2023-03-01T00:47:50;-2.20;99.90
9215;DHT22;4642;51.364;6.788;2023-03-01T00:50:16;-2.20;99.90
9215;DHT22;4642;51.364;6.788;2023-03-01T00:52:41;-2.20;99.90
9215;DHT22;4642;51.364;6.788;2023-03-01T00:55:07;-2.30;99.90
9215;DHT22;4642;51.364;6.788;2023-03-01T00:57:33;-2.30;99.90
9215;DHT22;4642;51.364;6.788;2023-03-01T00:59:59;-2.30;99.90
9215;DHT22;4642;51.364;6.788;2023-03-01T01:02:24;-2.30;99.90
9215;DHT22;4642;51.364;6.788;2023-03-01T01:04:50;-2.30;99.90
9215;DHT22;4642;51.364;6.788;2023-03-01T01:07:16;-2.30;99.90
9215;DHT22;4642;51.364;6.788;2023-03-01T01:09:42;-2.40;99.90
9215;DHT22;4642;51.364;6.788;2023-03-01T01:12:08;-2.40;99.90
9215;DHT22;4642;51.364;6.788;2023-03-01T01:14:34;-2.40;99.90
9215;DHT22;4642;51.364;6.788;2023-03-01T01:16:59;-2.40;99.90
9215;DHT22;4642;51.364;6.788;2023-03-01T01:19:25;-2.40;99.90
9215;DHT22;4642;51.364;6.788;2023-03-01T01:21:51;-2.50;99.90
9215;DHT22;4642;51.364;6.788;2023-03-01T01:24:18;-2.50;99.90
9215;DHT22;4642;51.364;6.788;2023-03-01T01:26:44;-2.50;99.90
9215;DHT22;4642;51.364;6.788;2023-03-01T01:29:10;-2.50;99.90
9215;DHT22;4642;51.364;6.788;2023-03-01T01:31:37;-2.50;99.90
9215;DHT22;4642;51.364;6.788;2023-03-01T01:34:04;-2.50;99.90
9215;DHT22;4642;51.364;6.788;2023-03-01T01:36:31;-2.50;99.90
9215;DHT22;4642;51.364;6.788;2023-03-01T01:38:57;-2.50;99.90
9215;DHT22;4642;51.364;6.788;2023-03-01T01:41:25;-2.50;99.90
9215;DHT22;4642;51.364;6.788;2023-03-01T01:46:38;-2.50;99.90
9215;DHT22;4642;51.364;6.788;2023-03-01T01:49:11;-2.50;99.90
9215;DHT22;4642;51.364;6.788;2023-03-01T01:51:42;-2.60;99.90
9215;DHT22;4642;51.364;6.788;2023-03-01T01:54:16;-2.60;99.90
9215;DHT22;4642;51.364;6.788;2023-03-01T01:56:48;-2.70;99.90
9215;DHT22;4642;51.364;6.788;2023-03-01T01:59:16;-2.70;99.90
9215;DHT22;4642;51.364;6.788;2023-03-01T02:01:42;-2.70;99.90
9215;DHT22;4642;51.364;6.788;2023-03-01T02:04:08;-2.70;99.90
9215;DHT22;4642;51.364;6.788;2023-03-01T02:06:38;-2.80;99.90
9215;DHT22;4642;51.364;6.788;2023-03-01T02:09:07;-2.80;99.90
9215;DHT22;4642;51.364;6.788;2023-03-01T02:11:33;-2.80;99.90
9215;DHT22;4642;51.364;6.788;2023-03-01T02:14:00;-2.80;99.90
9215;DHT22;4642;51.364;6.788;2023-03-01T02:16:26;-2.80;99.90
9215;DHT22;4642;51.364;6.788;2023-03-01T02:18:52;-2.90;99.90
9215;DHT22;4642;51.364;6.788;2023-03-01T02:21:50;-2.90;99.90
9215;DHT22;4642;51.364;6.788;2023-03-01T02:27:23;-2.90;99.90
9215;DHT22;4642;51.364;6.788;2023-03-01T02:29:50;-2.90;99.90
9215;DHT22;4642;51.364;6.788;2023-03-01T02:32:16;-2.90;99.90
9215;DHT22;4642;51.364;6.788;2023-03-01T02:34:54;-2.90;99.90
9215;DHT22;4642;51.364;6.788;2023-03-01T02:37:21;-2.90;99.90
9215;DHT22;4642;51.364;6.788;2023-03-01T02:39:55;-2.90;99.90
9215;DHT22;4642;51.364;6.788;2023-03-01T02:42:28;-3.00;99.90
9215;DHT22;4642;51.364;6.788;2023-03-01T02:44:55;-3.00;99.90
9215;DHT22;4642;51.364;6.788;2023-03-01T02:47:21;-2.90;99.90
9215;DHT22;4642;51.364;6.788;2023-03-01T02:49:47;-3.00;99.90
9215;DHT22;4642;51.364;6.788;2023-03-01T02:52:30;-2.90;99.90
9215;DHT22;4642;51.364;6.788;2023-03-01T02:57:34;-3.00;99.90
9215;DHT22;4642;51.364;6.788;2023-03-01T03:00:11;-3.00;99.90
9215;DHT22;4642;51.364;6.788;2023-03-01T03:02:45;-3.10;99.90
9215;DHT22;4642;51.364;6.788;2023-03-01T03:05:14;-3.10;99.90
9215;DHT22;4642;51.364;6.788;2023-03-01T03:07:42;-3.10;99.90
9215;DHT22;4642;51.364;6.788;2023-03-01T03:10:12;-3.10;99.90
9215;DHT22;4642;51.364;6.788;2023-03-01T03:12:38;-3.10;99.90
9215;DHT22;4642;51.364;6.788;2023-03-01T03:15:06;-3.10;99.90
9215;DHT22;4642;51.364;6.788;2023-03-01T03:17:38;-3.10;99.90
9215;DHT22;4642;51.364;6.788;2023-03-01T03:20:06;-3.10;99.90
9215;DHT22;4642;51.364;6.788;2023-03-01T03:22:36;-3.10;99.90
9215;DHT22;4642;51.364;6.788;2023-03-01T03:25:02;-3.10;99.90
9215;DHT22;4642;51.364;6.788;2023-03-01T03:27:28;-3.10;99.90
9215;DHT22;4642;51.364;6.788;2023-03-01T03:29:53;-3.10;99.90
9215;DHT22;4642;51.364;6.788;2023-03-01T03:32:19;-3.00;99.90
9215;DHT22;4642;51.364;6.788;2023-03-01T03:34:45;-3.10;99.90
9215;DHT22;4642;51.364;6.788;2023-03-01T03:37:10;-3.00;99.90
9215;DHT22;4642;51.364;6.788;2023-03-01T03:39:56;-3.00;99.90
9215;DHT22;4642;51.364;6.788;2023-03-01T03:42:21;-3.00;99.90
9215;DHT22;4642;51.364;6.788;2023-03-01T03:44:49;-3.10;99.90
9215;DHT22;4642;51.364;6.788;2023-03-01T03:47:15;-3.10;99.90
9215;DHT22;4642;51.364;6.788;2023-03-01T03:49:40;-3.10;99.90
9215;DHT22;4642;51.364;6.788;2023-03-01T03:52:06;-3.10;99.90
9215;DHT22;4642;51.364;6.788;2023-03-01T03:54:39;-3.10;99.90
9215;DHT22;4642;51.364;6.788;2023-03-01T03:57:05;-3.10;99.90
9215;DHT22;4642;51.364;6.788;2023-03-01T03:59:31;-3.10;99.90
9215;DHT22;4642;51.364;6.788;2023-03-01T04:01:57;-3.10;99.90
9215;DHT22;4642;51.364;6.788;2023-03-01T04:04:22;-3.10;99.90
9215;DHT22;4642;51.364;6.788;2023-03-01T04:06:48;-3.20;99.90
9215;DHT22;4642;51.364;6.788;2023-03-01T04:09:13;-3.20;99.90
9215;DHT22;4642;51.364;6.788;2023-03-01T04:11:39;-3.20;99.90
9215;DHT22;4642;51.364;6.788;2023-03-01T04:14:04;-3.20;99.90
9215;DHT22;4642;51.364;6.788;2023-03-01T04:16:30;-3.20;99.90
9215;DHT22;4642;51.364;6.788;2023-03-01T04:18:55;-3.20;99.90
9215;DHT22;4642;51.364;6.788;2023-03-01T04:21:21;-3.20;99.90
9215;DHT22;4642;51.364;6.788;2023-03-01T04:23:47;-3.30;99.90
9215;DHT22;4642;51.364;6.788;2023-03-01T04:26:13;-3.20;99.90
9215;DHT22;4642;51.364;6.788;2023-03-01T04:28:40;-3.30;99.90
9215;DHT22;4642;51.364;6.788;2023-03-01T04:31:17;-3.30;99.90
9215;DHT22;4642;51.364;6.788;2023-03-01T04:33:49;-3.30;99.90
9215;DHT22;4642;51.364;6.788;2023-03-01T04:36:17;-3.30;99.90
9215;DHT22;4642;51.364;6.788;2023-03-01T04:38:44;-3.30;99.90
9215;DHT22;4642;51.364;6.788;2023-03-01T04:41:15;-3.20;99.90
9215;DHT22;4642;51.364;6.788;2023-03-01T04:43:41;-3.30;99.90
9215;DHT22;4642;51.364;6.788;2023-03-01T04:46:10;-3.30;99.90
9215;DHT22;4642;51.364;6.788;2023-03-01T04:48:37;-3.30;99.90
9215;DHT22;4642;51.364;6.788;2023-03-01T04:51:03;-3.30;99.90
9215;DHT22;4642;51.364;6.788;2023-03-01T04:53:29;-3.20;99.90
9215;DHT22;4642;51.364;6.788;2023-03-01T04:55:56;-3.20;99.90
9215;DHT22;4642;51.364;6.788;2023-03-01T04:58:23;-3.20;99.90
9215;DHT22;4642;51.364;6.788;2023-03-01T05:00:49;-3.20;99.90
9215;DHT22;4642;51.364;6.788;2023-03-01T05:03:15;-3.20;99.90
9215;DHT22;4642;51.364;6.788;2023-03-01T05:05:44;-3.30;99.90
9215;DHT22;4642;51.364;6.788;2023-03-01T05:08:10;-3.30;99.90
9215;DHT22;4642;51.364;6.788;2023-03-01T05:10:48;-3.30;99.90
9215;DHT22;4642;51.364;6.788;2023-03-01T05:13:14;-3.30;99.90
9215;DHT22;4642;51.364;6.788;2023-03-01T05:15:56;-3.30;99.90
9215;DHT22;4642;51.364;6.788;2023-03-01T05:18:23;-3.30;99.90
9215;DHT22;4642;51.364;6.788;2023-03-01T05:20:51;-3.30;99.90
9215;DHT22;4642;51.364;6.788;2023-03-01T05:23:17;-3.30;99.90
9215;DHT22;4642;51.364;6.788;2023-03-01T05:25:44;-3.30;99.90
9215;DHT22;4642;51.364;6.788;2023-03-01T05:28:11;-3.30;99.90
9215;DHT22;4642;51.364;6.788;2023-03-01T05:30:37;-3.30;99.90
9215;DHT22;4642;51.364;6.788;2023-03-01T05:33:04;-3.30;99.90
9215;DHT22;4642;51.364;6.788;2023-03-01T05:35:32;-3.40;99.90
9215;DHT22;4642;51.364;6.788;2023-03-01T05:37:58;-3.30;99.90
9215;DHT22;4642;51.364;6.788;2023-03-01T05:40:23;-3.30;99.90
9215;DHT22;4642;51.364;6.788;2023-03-01T05:42:55;-3.30;99.90
9215;DHT22;4642;51.364;6.788;2023-03-01T05:45:22;-3.30;99.90
9215;DHT22;4642;51.364;6.788;2023-03-01T05:47:48;-3.20;99.90
9215;DHT22;4642;51.364;6.788;2023-03-01T05:50:28;-3.30;99.90
9215;DHT22;4642;51.364;6.788;2023-03-01T05:53:00;-3.30;99.90
9215;DHT22;4642;51.364;6.788;2023-03-01T05:55:28;-3.30;99.90
9215;DHT22;4642;51.364;6.788;2023-03-01T05:57:54;-3.30;99.90
9215;DHT22;4642;51.364;6.788;2023-03-01T06:00:20;-3.30;99.90
9215;DHT22;4642;51.364;6.788;2023-03-01T06:02:49;-3.20;99.90
9215;DHT22;4642;51.364;6.788;2023-03-01T06:05:17;-3.20;99.90
9215;DHT22;4642;51.364;6.788;2023-03-01T06:07:43;-3.20;99.90
9215;DHT22;4642;51.364;6.788;2023-03-01T06:10:10;-3.20;99.90
9215;DHT22;4642;51.364;6.788;2023-03-01T06:12:37;-3.20;99.90
9215;DHT22;4642;51.364;6.788;2023-03-01T06:15:04;-3.20;99.90
9215;DHT22;4642;51.364;6.788;2023-03-01T06:17:31;-3.20;99.90
9215;DHT22;4642;51.364;6.788;2023-03-01T06:19:57;-3.20;99.90
9215;DHT22;4642;51.364;6.788;2023-03-01T06:22:23;-3.20;99.90
9215;DHT22;4642;51.364;6.788;2023-03-01T06:24:49;-3.20;99.90
9215;DHT22;4642;51.364;6.788;2023-03-01T06:27:15;-3.20;99.90
9215;DHT22;4642;51.364;6.788;2023-03-01T06:29:40;-3.20;99.90
9215;DHT22;4642;51.364;6.788;2023-03-01T06:32:06;-3.20;99.90
9215;DHT22;4642;51.364;6.788;2023-03-01T06:34:33;-3.20;99.90
9215;DHT22;4642;51.364;6.788;2023-03-01T06:36:58;-3.20;99.90
9215;DHT22;4642;51.364;6.788;2023-03-01T06:39:24;-3.20;99.90
9215;DHT22;4642;51.364;6.788;2023-03-01T06:41:49;-3.10;99.90
9215;DHT22;4642;51.364;6.788;2023-03-01T06:44:15;-3.20;99.90
9215;DHT22;4642;51.364;6.788;2023-03-01T06:46:41;-3.10;99.90
9215;DHT22;4642;51.364;6.788;2023-03-01T06:49:06;-3.10;99.90
9215;DHT22;4642;51.364;6.788;2023-03-01T06:51:35;-3.10;99.90
9215;DHT22;4642;51.364;6.788;2023-03-01T06:54:02;-3.10;99.90
9215;DHT22;4642;51.364;6.788;2023-03-01T06:56:28;-3.10;99.90
9215;DHT22;4642;51.364;6.788;2023-03-01T06:58:53;-3.00;99.90
9215;DHT22;4642;51.364;6.788;2023-03-01T07:01:19;-3.10;99.90
9215;DHT22;4642;51.364;6.788;2023-03-01T07:03:44;-3.10;99.90
9215;DHT22;4642;51.364;6.788;2023-03-01T07:06:10;-3.10;99.90
9215;DHT22;4642;51.364;6.788;2023-03-01T07:08:36;-3.10;99.90
9215;DHT22;4642;51.364;6.788;2023-03-01T07:11:01;-3.00;99.90
9215;DHT22;4642;51.364;6.788;2023-03-01T07:13:28;-2.90;99.90
9215;DHT22;4642;51.364;6.788;2023-03-01T07:15:54;-2.90;99.90
9215;DHT22;4642;51.364;6.788;2023-03-01T07:18:19;-2.90;99.90
9215;DHT22;4642;51.364;6.788;2023-03-01T07:20:45;-2.80;99.90
9215;DHT22;4642;51.364;6.788;2023-03-01T07:23:10;-2.70;99.90
9215;DHT22;4642;51.364;6.788;2023-03-01T07:25:36;-2.70;99.90
9215;DHT22;4642;51.364;6.788;2023-03-01T07:28:01;-2.70;99.90
9215;DHT22;4642;51.364;6.788;2023-03-01T07:30:27;-2.70;99.90
9215;DHT22;4642;51.364;6.788;2023-03-01T07:32:54;-2.50;99.90
9215;DHT22;4642;51.364;6.788;2023-03-01T07:35:20;-2.60;99.90
9215;DHT22;4642;51.364;6.788;2023-03-01T07:37:46;-2.50;99.90
9215;DHT22;4642;51.364;6.788;2023-03-01T07:40:12;-2.50;99.90
9215;DHT22;4642;51.364;6.788;2023-03-01T07:42:38;-2.40;99.90
9215;DHT22;4642;51.364;6.788;2023-03-01T07:45:04;-2.40;99.90
9215;DHT22;4642;51.364;6.788;2023-03-01T07:47:31;-2.40;99.90
9215;DHT22;4642;51.364;6.788;2023-03-01T07:49:57;-2.30;99.90
9215;DHT22;4642;51.364;6.788;2023-03-01T07:52:22;-2.30;99.90
9215;DHT22;4642;51.364;6.788;2023-03-01T07:54:48;-2.20;99.90
9215;DHT22;4642;51.364;6.788;2023-03-01T07:57:13;-2.20;99.90
9215;DHT22;4642;51.364;6.788;2023-03-01T07:59:39;-2.00;99.90
9215;DHT22;4642;51.364;6.788;2023-03-01T08:02:05;-2.00;99.90
9215;DHT22;4642;51.364;6.788;2023-03-01T08:04:31;-1.90;99.90
9215;DHT22;4642;51.364;6.788;2023-03-01T08:06:57;-1.80;99.90
9215;DHT22;4642;51.364;6.788;2023-03-01T08:09:22;-1.70;99.90
9215;DHT22;4642;51.364;6.788;2023-03-01T08:11:48;-1.70;99.90
9215;DHT22;4642;51.364;6.788;2023-03-01T08:14:13;-1.60;99.90
9215;DHT22;4642;51.364;6.788;2023-03-01T08:16:39;-1.60;99.90
9215;DHT22;4642;51.364;6.788;2023-03-01T08:19:06;-1.50;99.90
9215;DHT22;4642;51.364;6.788;2023-03-01T08:21:32;-1.50;99.90
9215;DHT22;4642;51.364;6.788;2023-03-01T08:24:00;-1.40;99.90
9215;DHT22;4642;51.364;6.788;2023-03-01T08:26:26;-1.30;99.90
9215;DHT22;4642;51.364;6.788;2023-03-01T08:28:51;-1.20;99.90
9215;DHT22;4642;51.364;6.788;2023-03-01T08:31:30;-1.10;99.90
9215;DHT22;4642;51.364;6.788;2023-03-01T08:33:58;-1.00;99.90
9215;DHT22;4642;51.364;6.788;2023-03-01T08:36:27;-0.90;99.90
9215;DHT22;4642;51.364;6.788;2023-03-01T08:38:53;-0.80;99.90
9215;DHT22;4642;51.364;6.788;2023-03-01T08:41:19;-0.70;99.90
9215;DHT22;4642;51.364;6.788;2023-03-01T08:43:45;-0.60;99.90
9215;DHT22;4642;51.364;6.788;2023-03-01T08:46:11;-0.60;99.90
9215;DHT22;4642;51.364;6.788;2023-03-01T08:48:36;-0.50;99.90
9215;DHT22;4642;51.364;6.788;2023-03-01T08:51:16;-0.30;99.90
9215;DHT22;4642;51.364;6.788;2023-03-01T08:53:42;-0.20;99.90
9215;DHT22;4642;51.364;6.788;2023-03-01T08:56:09;-0.10;99.90
9215;DHT22;4642;51.364;6.788;2023-03-01T08:58:35;0.10;99.90
9215;DHT22;4642;51.364;6.788;2023-03-01T09:01:00;0.10;99.90
9215;DHT22;4642;51.364;6.788;2023-03-01T09:03:27;0.20;99.90
9215;DHT22;4642;51.364;6.788;2023-03-01T09:05:53;0.40;99.90
9215;DHT22;4642;51.364;6.788;2023-03-01T09:08:19;0.50;99.90
9215;DHT22;4642;51.364;6.788;2023-03-01T09:10:44;0.60;99.90
9215;DHT22;4642;51.364;6.788;2023-03-01T09:13:10;0.60;98.00
9215;DHT22;4642;51.364;6.788;2023-03-01T09:15:39;0.70;43.30
9215;DHT22;4642;51.364;6.788;2023-03-01T09:18:05;0.80;36.70
9215;DHT22;4642;51.364;6.788;2023-03-01T09:20:31;0.90;43.60
9215;DHT22;4642;51.364;6.788;2023-03-01T09:22:57;1.00;17.40
9215;DHT22;4642;51.364;6.788;2023-03-01T09:25:23;1.00;1.00
9215;DHT22;4642;51.364;6.788;2023-03-01T09:27:52;1.20;1.00
9215;DHT22;4642;51.364;6.788;2023-03-01T09:30:18;1.20;1.00
9215;DHT22;4642;51.364;6.788;2023-03-01T09:32:44;1.70;1.00
9215;DHT22;4642;51.364;6.788;2023-03-01T09:35:10;1.40;1.00
9215;DHT22;4642;51.364;6.788;2023-03-01T09:37:36;1.50;1.00
9215;DHT22;4642;51.364;6.788;2023-03-01T09:40:15;1.50;1.00
9215;DHT22;4642;51.364;6.788;2023-03-01T09:42:54;1.70;1.00
9215;DHT22;4642;51.364;6.788;2023-03-01T09:45:41;1.70;1.00
9215;DHT22;4642;51.364;6.788;2023-03-01T09:48:21;1.90;1.00
9215;DHT22;4642;51.364;6.788;2023-03-01T09:50:49;2.00;1.00
9215;DHT22;4642;51.364;6.788;2023-03-01T09:53:24;2.10;1.00
9215;DHT22;4642;51.364;6.788;2023-03-01T09:55:55;2.10;1.00
9215;DHT22;4642;51.364;6.788;2023-03-01T10:00:59;2.30;99.90
9215;DHT22;4642;51.364;6.788;2023-03-01T10:03:39;2.40;99.90
9215;DHT22;4642;51.364;6.788;2023-03-01T10:06:21;2.50;99.90
9215;DHT22;4642;51.364;6.788;2023-03-01T10:08:58;2.60;96.90
9215;DHT22;4642;51.364;6.788;2023-03-01T10:11:35;2.60;48.50
9215;DHT22;4642;51.364;6.788;2023-03-01T10:19:12;2.80;4.70
9215;DHT22;4642;51.364;6.788;2023-03-01T10:21:44;2.90;1.00
9215;DHT22;4642;51.364;6.788;2023-03-01T10:24:15;2.90;1.00
9215;DHT22;4642;51.364;6.788;2023-03-01T10:29:14;3.10;15.00
9215;DHT22;4642;51.364;6.788;2023-03-01T10:31:41;3.10;14.00
9215;DHT22;4642;51.364;6.788;2023-03-01T10:34:18;3.10;37.50
9215;DHT22;4642;51.364;6.788;2023-03-01T10:36:48;3.20;23.50
9215;DHT22;4642;51.364;6.788;2023-03-01T10:39:20;3.30;1.00
9215;DHT22;4642;51.364;6.788;2023-03-01T10:41:57;3.30;1.00
9215;DHT22;4642;51.364;6.788;2023-03-01T10:44:47;3.40;1.00
9215;DHT22;4642;51.364;6.788;2023-03-01T10:50:08;3.60;1.00
9215;DHT22;4642;51.364;6.788;2023-03-01T10:52:59;3.60;1.00
9215;DHT22;4642;51.364;6.788;2023-03-01T10:55:38;3.70;1.00
9215;DHT22;4642;51.364;6.788;2023-03-01T11:00:33;3.90;1.00
9215;DHT22;4642;51.364;6.788;2023-03-01T11:05:25;3.90;1.00
9215;DHT22;4642;51.364;6.788;2023-03-01T11:07:55;4.00;1.00
9215;DHT22;4642;51.364;6.788;2023-03-01T11:10:33;4.00;1.00
9215;DHT22;4642;51.364;6.788;2023-03-01T11:13:19;4.10;1.00
9215;DHT22;4642;51.364;6.788;2023-03-01T11:16:02;4.10;1.00
9215;DHT22;4642;51.364;6.788;2023-03-01T11:18:30;4.20;1.00
9215;DHT22;4642;51.364;6.788;2023-03-01T11:20:56;4.30;99.90
9215;DHT22;4642;51.364;6.788;2023-03-01T11:23:23;4.30;1.00
9215;DHT22;4642;51.364;6.788;2023-03-01T11:25:58;4.30;1.00
9215;DHT22;4642;51.364;6.788;2023-03-01T11:28:26;4.40;1.00
9215;DHT22;4642;51.364;6.788;2023-03-01T11:31:08;4.40;1.00
9215;DHT22;4642;51.364;6.788;2023-03-01T11:36:35;4.50;1.00
9215;DHT22;4642;51.364;6.788;2023-03-01T11:41:52;4.70;99.90
9215;DHT22;4642;51.364;6.788;2023-03-01T11:44:27;4.70;99.90
9215;DHT22;4642;51.364;6.788;2023-03-01T11:53:10;4.90;99.90
9215;DHT22;4642;51.364;6.788;2023-03-01T11:55:58;4.90;99.90
9215;DHT22;4642;51.364;6.788;2023-03-01T12:06:31;5.10;13.60
9215;DHT22;4642;51.364;6.788;2023-03-01T12:20:47;5.30;96.10
9215;DHT22;4642;51.364;6.788;2023-03-01T12:26:13;5.40;1.00
9215;DHT22;4642;51.364;6.788;2023-03-01T12:28:57;5.50;1.00
9215;DHT22;4642;51.364;6.788;2023-03-01T12:34:41;5.60;99.90
9215;DHT22;4642;51.364;6.788;2023-03-01T12:44:58;5.50;1.00
9215;DHT22;4642;51.364;6.788;2023-03-01T12:48:15;5.60;99.90
9215;DHT22;4642;51.364;6.788;2023-03-01T12:50:52;5.70;1.00
9215;DHT22;4642;51.364;6.788;2023-03-01T12:53:26;5.80;1.00
9215;DHT22;4642;51.364;6.788;2023-03-01T12:55:56;5.80;1.00
9215;DHT22;4642;51.364;6.788;2023-03-01T12:58:44;5.80;1.00
9215;DHT22;4642;51.364;6.788;2023-03-01T13:01:22;5.90;99.90
9215;DHT22;4642;51.364;6.788;2023-03-01T13:09:54;5.90;1.00
9215;DHT22;4642;51.364;6.788;2023-03-01T13:20:34;5.90;99.90
9215;DHT22;4642;51.364;6.788;2023-03-01T13:26:15;5.80;1.00
9215;DHT22;4642;51.364;6.788;2023-03-01T13:31:56;5.90;99.90
9215;DHT22;4642;51.364;6.788;2023-03-01T13:33:59;6.00;99.90
9215;DHT22;4642;51.364;6.788;2023-03-01T13:44:13;6.20;99.90
9215;DHT22;4642;51.364;6.788;2023-03-01T13:46:45;6.30;99.90
9215;DHT22;4642;51.364;6.788;2023-03-01T13:49:23;6.30;99.90
9215;DHT22;4642;51.364;6.788;2023-03-01T13:51:51;6.40;99.90
9215;DHT22;4642;51.364;6.788;2023-03-01T13:54:25;6.40;99.90
9215;DHT22;4642;51.364;6.788;2023-03-01T13:56:51;6.40;99.90
9215;DHT22;4642;51.364;6.788;2023-03-01T13:59:19;6.50;99.90
9215;DHT22;4642;51.364;6.788;2023-03-01T14:01:53;6.40;99.90
9215;DHT22;4642;51.364;6.788;2023-03-01T14:06:46;6.30;99.90
9215;DHT22;4642;51.364;6.788;2023-03-01T14:09:18;6.30;99.90
9215;DHT22;4642;51.364;6.788;2023-03-01T14:17:16;6.60;99.90
9215;DHT22;4642;51.364;6.788;2023-03-01T14:19:45;6.60;99.90
9215;DHT22;4642;51.364;6.788;2023-03-01T14:22:34;6.50;99.90
9215;DHT22;4642;51.364;6.788;2023-03-01T14:25:05;6.50;99.90
9215;DHT22;4642;51.364;6.788;2023-03-01T14:27:39;6.50;99.90
9215;DHT22;4642;51.364;6.788;2023-03-01T14:32:51;6.50;99.90
9215;DHT22;4642;51.364;6.788;2023-03-01T14:35:36;6.50;99.90
9215;DHT22;4642;51.364;6.788;2023-03-01T14:38:02;6.50;99.90
9215;DHT22;4642;51.364;6.788;2023-03-01T14:40:31;6.50;99.90
9215;DHT22;4642;51.364;6.788;2023-03-01T14:43:00;6.50;99.90
9215;DHT22;4642;51.364;6.788;2023-03-01T14:45:29;6.50;99.90
9215;DHT22;4642;51.364;6.788;2023-03-01T14:48:00;6.50;99.90
9215;DHT22;4642;51.364;6.788;2023-03-01T14:50:34;6.50;99.90
9215;DHT22;4642;51.364;6.788;2023-03-01T14:53:06;6.80;99.90
9215;DHT22;4642;51.364;6.788;2023-03-01T14:55:40;6.60;99.90
9215;DHT22;4642;51.364;6.788;2023-03-01T14:58:12;6.50;99.90
9215;DHT22;4642;51.364;6.788;2023-03-01T15:00:39;6.60;99.90
9215;DHT22;4642;51.364;6.788;2023-03-01T15:03:13;6.60;99.90
9215;DHT22;4642;51.364;6.788;2023-03-01T15:05:42;6.60;99.90
9215;DHT22;4642;51.364;6.788;2023-03-01T15:08:18;6.60;99.90
9215;DHT22;4642;51.364;6.788;2023-03-01T15:11:03;6.70;99.90
9215;DHT22;4642;51.364;6.788;2023-03-01T15:13:34;6.60;99.90
9215;DHT22;4642;51.364;6.788;2023-03-01T15:16:08;6.70;99.90
9215;DHT22;4642;51.364;6.788;2023-03-01T15:18:35;6.60;99.90
9215;DHT22;4642;51.364;6.788;2023-03-01T15:21:07;6.60;99.90
9215;DHT22;4642;51.364;6.788;2023-03-01T15:23:34;6.60;99.90
9215;DHT22;4642;51.364;6.788;2023-03-01T15:26:00;6.60;99.90
9215;DHT22;4642;51.364;6.788;2023-03-01T15:28:40;6.60;99.90
9215;DHT22;4642;51.364;6.788;2023-03-01T15:31:22;6.50;99.90
9215;DHT22;4642;51.364;6.788;2023-03-01T15:33:48;6.60;99.90
9215;DHT22;4642;51.364;6.788;2023-03-01T15:36:35;6.60;99.90
9215;DHT22;4642;51.364;6.788;2023-03-01T15:39:03;6.50;99.90
9215;DHT22;4642;51.364;6.788;2023-03-01T15:41:45;6.50;99.90
9215;DHT22;4642;51.364;6.788;2023-03-01T15:44:25;6.50;99.90
9215;DHT22;4642;51.364;6.788;2023-03-01T15:46:51;6.40;99.90
9215;DHT22;4642;51.364;6.788;2023-03-01T15:49:31;6.40;99.90
9215;DHT22;4642;51.364;6.788;2023-03-01T15:51:58;6.40;99.90
9215;DHT22;4642;51.364;6.788;2023-03-01T15:54:25;6.40;99.90
9215;DHT22;4642;51.364;6.788;2023-03-01T15:56:51;6.30;99.90
9215;DHT22;4642;51.364;6.788;2023-03-01T15:59:17;6.30;99.90
9215;DHT22;4642;51.364;6.788;2023-03-01T16:01:44;6.30;99.90
9215;DHT22;4642;51.364;6.788;2023-03-01T16:04:13;6.20;99.90
9215;DHT22;4642;51.364;6.788;2023-03-01T16:06:49;6.20;99.90
9215;DHT22;4642;51.364;6.788;2023-03-01T16:09:23;6.10;99.90
9215;DHT22;4642;51.364;6.788;2023-03-01T16:11:50;6.10;99.90
9215;DHT22;4642;51.364;6.788;2023-03-01T16:14:16;6.10;99.90
9215;DHT22;4642;51.364;6.788;2023-03-01T16:16:42;6.10;99.90
9215;DHT22;4642;51.364;6.788;2023-03-01T16:19:08;6.00;99.90
9215;DHT22;4642;51.364;6.788;2023-03-01T16:21:34;5.90;99.90
9215;DHT22;4642;51.364;6.788;2023-03-01T16:24:00;5.90;99.90
9215;DHT22;4642;51.364;6.788;2023-03-01T16:26:29;5.90;99.90
9215;DHT22;4642;51.364;6.788;2023-03-01T16:28:56;5.90;99.90
9215;DHT22;4642;51.364;6.788;2023-03-01T16:31:22;5.80;99.90
9215;DHT22;4642;51.364;6.788;2023-03-01T16:33:48;5.80;99.90
9215;DHT22;4642;51.364;6.788;2023-03-01T16:36:19;5.90;99.90
9215;DHT22;4642;51.364;6.788;2023-03-01T16:38:45;5.70;99.90
9215;DHT22;4642;51.364;6.788;2023-03-01T16:41:13;5.60;99.90
9215;DHT22;4642;51.364;6.788;2023-03-01T16:43:39;5.60;99.90
9215;DHT22;4642;51.364;6.788;2023-03-01T16:46:21;5.60;99.90
9215;DHT22;4642;51.364;6.788;2023-03-01T16:48:48;5.50;99.90
9215;DHT22;4642;51.364;6.788;2023-03-01T16:51:14;5.40;99.90
9215;DHT22;4642;51.364;6.788;2023-03-01T16:53:40;5.40;99.90
9215;DHT22;4642;51.364;6.788;2023-03-01T16:56:08;5.30;99.90
9215;DHT22;4642;51.364;6.788;2023-03-01T16:58:35;5.20;99.90
9215;DHT22;4642;51.364;6.788;2023-03-01T17:01:12;5.20;99.90
9215;DHT22;4642;51.364;6.788;2023-03-01T17:03:39;5.10;99.90
9215;DHT22;4642;51.364;6.788;2023-03-01T17:06:07;5.00;99.90
9215;DHT22;4642;51.364;6.788;2023-03-01T17:08:34;5.00;99.90
9215;DHT22;4642;51.364;6.788;2023-03-01T17:11:04;4.90;99.90
9215;DHT22;4642;51.364;6.788;2023-03-01T17:13:30;4.90;99.90
9215;DHT22;4642;51.364;6.788;2023-03-01T17:15:56;4.80;99.90
9215;DHT22;4642;51.364;6.788;2023-03-01T17:18:21;4.80;99.90
9215;DHT22;4642;51.364;6.788;2023-03-01T17:20:47;4.70;99.90
9215;DHT22;4642;51.364;6.788;2023-03-01T17:23:12;4.60;99.90
9215;DHT22;4642;51.364;6.788;2023-03-01T17:25:42;4.60;99.90
9215;DHT22;4642;51.364;6.788;2023-03-01T17:28:10;4.50;99.90
9215;DHT22;4642;51.364;6.788;2023-03-01T17:30:35;4.40;99.90
9215;DHT22;4642;51.364;6.788;2023-03-01T17:33:01;4.40;99.90
9215;DHT22;4642;51.364;6.788;2023-03-01T17:35:26;4.30;99.90
9215;DHT22;4642;51.364;6.788;2023-03-01T17:37:52;4.20;99.90
9215;DHT22;4642;51.364;6.788;2023-03-01T17:40:17;4.20;99.90
9215;DHT22;4642;51.364;6.788;2023-03-01T17:42:43;4.10;99.90
9215;DHT22;4642;51.364;6.788;2023-03-01T17:45:09;4.00;99.90
9215;DHT22;4642;51.364;6.788;2023-03-01T17:47:35;3.80;99.90
9215;DHT22;4642;51.364;6.788;2023-03-01T17:50:00;3.80;99.90
9215;DHT22;4642;51.364;6.788;2023-03-01T17:52:26;3.70;99.90
9215;DHT22;4642;51.364;6.788;2023-03-01T17:54:52;3.60;99.90
9215;DHT22;4642;51.364;6.788;2023-03-01T17:57:17;3.50;99.90
9215;DHT22;4642;51.364;6.788;2023-03-01T17:59:43;3.50;99.90
9215;DHT22;4642;51.364;6.788;2023-03-01T18:02:11;3.40;99.90
9215;DHT22;4642;51.364;6.788;2023-03-01T18:04:37;3.30;99.90
9215;DHT22;4642;51.364;6.788;2023-03-01T18:07:02;3.30;99.90
9215;DHT22;4642;51.364;6.788;2023-03-01T18:09:28;3.20;99.90
9215;DHT22;4642;51.364;6.788;2023-03-01T18:11:54;3.20;99.90